Main page
METAR-TAF:

METAR-TAF

Airports :

Gibraltar, Gibraltar

Gibraltar International Airport

latitude: 36-09N, longitude: 005-21W, elevation: 5 m

Current weather observation

The report was made 25 minutes ago, at 02:50 UTC
Wind 15 kt from the East/Northeast
Temperature 16°C
Humidity 88%
Pressure 1019 hPa
Visibility 10 km or more

METAR: LXGB 190250Z AUTO 06015KT 9999 // FEW011/// BKN021/// 16/14 Q1019

Time: 04:15 (03:15 UTC)

Forecast

The report was made 13 hours and 44 minutes ago, at 13:31 UTC
Forecast valid from 18 at 15 UTC to 18 at 22 UTC
Wind 12 kt from the East/Northeast
Visibility 10 km or more
Few clouds at a height of 1500 ft
Scattered clouds at a height of 2800 ft
Temporary
from 18 at 15 UTC to 18 at 22 UTC
Scattered clouds at a height of 2000 ft

TAF: LXGB 181331Z 1815/1822 07012KT 9999 FEW015 SCT028 TEMPO 1815/1822 SCT020

Weather observations and forecasts of more than 4000 airports (METAR and TAF reports).

The available stations are represented by yellow and red dots on the map.

Hover mouse over dot to see the name of the station.

Then click to see weather observations and forecasts.

To change the map : click on the green buttons with a black cross to zoom in, on the green button with a dash to zoom out, or on the green arrows for adjacent maps.


METAR-TAF: